This is the latest recevied weather packets stored in our database for station/object KE8DAF-15. If no packets are shown the sender has not sent any weather packets the latest 10 day(s).
| Time | Temp. | Humidity | Pressure | Rain* | Wind** | Luminosity | Snow |
|---|---|---|---|---|---|---|---|
| 1777223669 | 16.11° C | 61% | 1008.5 hPa | 0 mm | - | - | - |
| 1777223369 | 15.56° C | 63% | 1008.4 hPa | 0 mm | - | - | - |
| 1777223069 | 15.56° C | 61% | 1008.8 hPa | 0 mm | - | - | - |
| 1777222769 | 15.56° C | 62% | 1008.8 hPa | 0 mm | - | - | - |
| 1777222469 | 15.56° C | 62% | 1009 hPa | 0 mm | - | - | - |
| 1777222169 | 16.11° C | 61% | 1009 hPa | 0 mm | - | - | - |
| 1777221869 | 15.56° C | 63% | 1009.1 hPa | 0 mm | - | - | - |
| 1777221569 | 15.56° C | 63% | 1009.2 hPa | 0 mm | - | - | - |
| 1777221269 | 15° C | 63% | 1009.1 hPa | 0 mm | - | - | - |
| 1777220969 | 15° C | 63% | 1009.3 hPa | 0 mm | - | - | - |
| 1777220669 | 15° C | 63% | 1009.3 hPa | 0 mm | - | - | - |
| 1777220369 | 15° C | 63% | 1009.3 hPa | 0 mm | - | - | - |
| 1777220069 | 14.44° C | 67% | 1009.2 hPa | 0 mm | - | - | - |
| 1777219769 | 14.44° C | 66% | 1009.4 hPa | 0 mm | - | - | - |
| 1777219469 | 13.89° C | 67% | 1009.3 hPa | 0 mm | - | - | - |
| 1777219169 | 13.89° C | 67% | 1009.4 hPa | 0 mm | - | - | - |
| 1777218869 | 13.33° C | 69% | 1009.5 hPa | 0 mm | - | - | - |
| 1777218569 | 13.33° C | 69% | 1009.5 hPa | 0 mm | - | - | - |
| 1777218269 | 13.33° C | 69% | 1009.6 hPa | 0 mm | - | - | - |
| 1777217969 | 13.33° C | 69% | 1009.6 hPa | 0 mm | - | - | - |
| 1777217669 | 13.33° C | 70% | 1009.5 hPa | 0 mm | - | - | - |
| 1777217369 | 13.33° C | 70% | 1009.6 hPa | 0 mm | - | - | - |
| 1777217069 | 12.78° C | 72% | 1009.7 hPa | 0 mm | - | - | - |
| 1777216803 | 12.78° C | 74% | 1009.7 hPa | 0 mm | - | - | - |
| 1777216769 | 12.78° C | 74% | 1009.7 hPa | 0 mm | - | - | - |
* Rain latest hour (hover to see other rain measurements)
** Current wind speed in m/s (hover to see current wind gust speed)